sensor_id;sensor_type;location;lat;lon;timestamp;temperature;humidity
25248;DHT22;13191;47.472;11.214;2023-02-28T00:01:28;-0.90;99.90
25248;DHT22;13191;47.472;11.214;2023-02-28T00:03:53;-1.00;99.90
25248;DHT22;13191;47.472;11.214;2023-02-28T00:06:19;-1.00;99.90
25248;DHT22;13191;47.472;11.214;2023-02-28T00:08:46;-1.00;99.90
25248;DHT22;13191;47.472;11.214;2023-02-28T00:11:12;-1.00;99.90
25248;DHT22;13191;47.472;11.214;2023-02-28T00:13:41;-1.00;99.90
25248;DHT22;13191;47.472;11.214;2023-02-28T00:16:09;-1.00;99.90
25248;DHT22;13191;47.472;11.214;2023-02-28T00:18:34;-1.00;99.90
25248;DHT22;13191;47.472;11.214;2023-02-28T00:21:00;-1.00;99.90
25248;DHT22;13191;47.472;11.214;2023-02-28T00:23:26;-1.00;99.90
25248;DHT22;13191;47.472;11.214;2023-02-28T00:25:51;-1.00;99.90
25248;DHT22;13191;47.472;11.214;2023-02-28T00:28:17;-0.90;99.90
25248;DHT22;13191;47.472;11.214;2023-02-28T00:30:43;-0.90;99.90
25248;DHT22;13191;47.472;11.214;2023-02-28T00:33:08;-0.90;99.90
25248;DHT22;13191;47.472;11.214;2023-02-28T00:35:34;-0.90;99.90
25248;DHT22;13191;47.472;11.214;2023-02-28T00:37:59;-0.90;99.90
25248;DHT22;13191;47.472;11.214;2023-02-28T00:40:25;-0.90;99.90
25248;DHT22;13191;47.472;11.214;2023-02-28T00:42:50;-0.90;99.90
25248;DHT22;13191;47.472;11.214;2023-02-28T00:45:16;-0.90;99.90
25248;DHT22;13191;47.472;11.214;2023-02-28T00:47:41;-1.00;99.90
25248;DHT22;13191;47.472;11.214;2023-02-28T00:50:07;-1.00;99.90
25248;DHT22;13191;47.472;11.214;2023-02-28T00:52:33;-1.00;99.90
25248;DHT22;13191;47.472;11.214;2023-02-28T00:54:59;-1.00;99.90
25248;DHT22;13191;47.472;11.214;2023-02-28T00:57:24;-1.00;99.90
25248;DHT22;13191;47.472;11.214;2023-02-28T00:59:50;-1.00;99.90
25248;DHT22;13191;47.472;11.214;2023-02-28T01:02:15;-1.00;99.90
25248;DHT22;13191;47.472;11.214;2023-02-28T01:04:41;-1.00;99.90
25248;DHT22;13191;47.472;11.214;2023-02-28T01:07:06;-1.00;99.90
25248;DHT22;13191;47.472;11.214;2023-02-28T01:09:32;-1.00;99.90
25248;DHT22;13191;47.472;11.214;2023-02-28T01:11:57;-1.00;99.90
25248;DHT22;13191;47.472;11.214;2023-02-28T01:14:23;-1.00;99.90
25248;DHT22;13191;47.472;11.214;2023-02-28T01:16:48;-1.00;99.90
25248;DHT22;13191;47.472;11.214;2023-02-28T01:19:13;-1.00;99.90
25248;DHT22;13191;47.472;11.214;2023-02-28T01:21:39;-1.00;99.90
25248;DHT22;13191;47.472;11.214;2023-02-28T01:24:04;-1.00;99.90
25248;DHT22;13191;47.472;11.214;2023-02-28T01:26:30;-1.10;99.90
25248;DHT22;13191;47.472;11.214;2023-02-28T01:28:57;-1.00;99.90
25248;DHT22;13191;47.472;11.214;2023-02-28T01:31:22;-1.10;99.90
25248;DHT22;13191;47.472;11.214;2023-02-28T01:33:48;-1.10;99.90
25248;DHT22;13191;47.472;11.214;2023-02-28T01:36:15;-1.10;99.90
25248;DHT22;13191;47.472;11.214;2023-02-28T01:38:41;-1.10;99.90
25248;DHT22;13191;47.472;11.214;2023-02-28T01:41:07;-1.10;99.90
25248;DHT22;13191;47.472;11.214;2023-02-28T01:46:07;-1.10;99.90
25248;DHT22;13191;47.472;11.214;2023-02-28T01:48:34;-1.10;99.90
25248;DHT22;13191;47.472;11.214;2023-02-28T01:51:02;-1.10;99.90
25248;DHT22;13191;47.472;11.214;2023-02-28T01:53:31;-1.10;99.90
25248;DHT22;13191;47.472;11.214;2023-02-28T01:55:57;-1.10;99.90
25248;DHT22;13191;47.472;11.214;2023-02-28T01:58:23;-1.10;99.90
25248;DHT22;13191;47.472;11.214;2023-02-28T02:00:48;-1.10;99.90
25248;DHT22;13191;47.472;11.214;2023-02-28T02:03:14;-1.10;99.90
25248;DHT22;13191;47.472;11.214;2023-02-28T02:05:41;-1.10;99.90
25248;DHT22;13191;47.472;11.214;2023-02-28T02:08:08;-1.10;99.90
25248;DHT22;13191;47.472;11.214;2023-02-28T02:10:35;-1.10;99.90
25248;DHT22;13191;47.472;11.214;2023-02-28T02:13:18;-1.10;99.90
25248;DHT22;13191;47.472;11.214;2023-02-28T02:18:34;-1.10;99.90
25248;DHT22;13191;47.472;11.214;2023-02-28T02:36:19;-1.10;99.90
25248;DHT22;13191;47.472;11.214;2023-02-28T02:38:48;-1.20;99.90
25248;DHT22;13191;47.472;11.214;2023-02-28T02:41:34;-1.10;99.90
25248;DHT22;13191;47.472;11.214;2023-02-28T02:44:12;-1.10;99.90
25248;DHT22;13191;47.472;11.214;2023-02-28T02:46:39;-1.20;99.90
25248;DHT22;13191;47.472;11.214;2023-02-28T02:49:08;-1.20;99.90
25248;DHT22;13191;47.472;11.214;2023-02-28T02:51:35;-1.20;99.90
25248;DHT22;13191;47.472;11.214;2023-02-28T02:54:15;-1.20;99.90
25248;DHT22;13191;47.472;11.214;2023-02-28T02:56:43;-1.30;99.90
25248;DHT22;13191;47.472;11.214;2023-02-28T02:59:10;-1.20;99.90
25248;DHT22;13191;47.472;11.214;2023-02-28T03:01:36;-1.20;99.90
25248;DHT22;13191;47.472;11.214;2023-02-28T03:04:04;-1.20;99.90
25248;DHT22;13191;47.472;11.214;2023-02-28T03:06:31;-1.20;99.90
25248;DHT22;13191;47.472;11.214;2023-02-28T03:08:56;-1.30;99.90
25248;DHT22;13191;47.472;11.214;2023-02-28T03:11:22;-1.30;99.90
25248;DHT22;13191;47.472;11.214;2023-02-28T03:19:13;-1.30;99.90
25248;DHT22;13191;47.472;11.214;2023-02-28T03:21:53;-1.20;99.90
25248;DHT22;13191;47.472;11.214;2023-02-28T03:24:37;-1.20;99.90
25248;DHT22;13191;47.472;11.214;2023-02-28T03:27:09;-1.20;99.90
25248;DHT22;13191;47.472;11.214;2023-02-28T03:29:46;-1.20;99.90
25248;DHT22;13191;47.472;11.214;2023-02-28T03:32:29;-1.30;99.90
25248;DHT22;13191;47.472;11.214;2023-02-28T03:37:25;-1.40;99.90
25248;DHT22;13191;47.472;11.214;2023-02-28T03:40:03;-1.40;99.90
25248;DHT22;13191;47.472;11.214;2023-02-28T03:42:31;-1.50;99.90
25248;DHT22;13191;47.472;11.214;2023-02-28T03:45:01;-1.60;99.90
25248;DHT22;13191;47.472;11.214;2023-02-28T03:47:32;-1.50;99.90
25248;DHT22;13191;47.472;11.214;2023-02-28T03:50:07;-1.50;99.90
25248;DHT22;13191;47.472;11.214;2023-02-28T03:52:36;-1.50;99.90
25248;DHT22;13191;47.472;11.214;2023-02-28T03:55:06;-1.50;99.90
25248;DHT22;13191;47.472;11.214;2023-02-28T03:57:43;-1.50;99.90
25248;DHT22;13191;47.472;11.214;2023-02-28T04:00:17;-1.50;99.90
25248;DHT22;13191;47.472;11.214;2023-02-28T04:02:44;-1.50;99.90
25248;DHT22;13191;47.472;11.214;2023-02-28T04:05:09;-1.60;99.90
25248;DHT22;13191;47.472;11.214;2023-02-28T04:07:35;-1.60;99.90
25248;DHT22;13191;47.472;11.214;2023-02-28T04:10:00;-1.70;99.90
25248;DHT22;13191;47.472;11.214;2023-02-28T04:12:26;-1.70;99.90
25248;DHT22;13191;47.472;11.214;2023-02-28T04:14:51;-1.70;99.90
25248;DHT22;13191;47.472;11.214;2023-02-28T04:17:17;-1.80;99.90
25248;DHT22;13191;47.472;11.214;2023-02-28T04:19:43;-1.80;99.90
25248;DHT22;13191;47.472;11.214;2023-02-28T04:22:09;-1.90;99.90
25248;DHT22;13191;47.472;11.214;2023-02-28T04:24:35;-1.90;99.90
25248;DHT22;13191;47.472;11.214;2023-02-28T04:27:00;-1.90;99.90
25248;DHT22;13191;47.472;11.214;2023-02-28T04:29:27;-2.00;99.90
25248;DHT22;13191;47.472;11.214;2023-02-28T04:31:53;-2.00;99.90
25248;DHT22;13191;47.472;11.214;2023-02-28T04:34:19;-2.10;99.90
25248;DHT22;13191;47.472;11.214;2023-02-28T04:36:45;-2.10;99.90
25248;DHT22;13191;47.472;11.214;2023-02-28T04:39:11;-2.20;99.90
25248;DHT22;13191;47.472;11.214;2023-02-28T04:41:37;-2.30;99.90
25248;DHT22;13191;47.472;11.214;2023-02-28T04:44:02;-2.30;99.90
25248;DHT22;13191;47.472;11.214;2023-02-28T04:46:28;-2.40;99.90
25248;DHT22;13191;47.472;11.214;2023-02-28T04:48:53;-2.50;99.90
25248;DHT22;13191;47.472;11.214;2023-02-28T04:51:19;-2.50;99.90
25248;DHT22;13191;47.472;11.214;2023-02-28T04:53:45;-2.60;99.90
25248;DHT22;13191;47.472;11.214;2023-02-28T04:56:12;-2.70;99.90
25248;DHT22;13191;47.472;11.214;2023-02-28T04:58:38;-2.70;99.90
25248;DHT22;13191;47.472;11.214;2023-02-28T05:01:06;-2.80;99.90
25248;DHT22;13191;47.472;11.214;2023-02-28T05:03:40;-2.90;99.90
25248;DHT22;13191;47.472;11.214;2023-02-28T05:06:06;-2.90;99.90
25248;DHT22;13191;47.472;11.214;2023-02-28T05:08:32;-3.00;99.90
25248;DHT22;13191;47.472;11.214;2023-02-28T05:10:58;-3.00;99.90
25248;DHT22;13191;47.472;11.214;2023-02-28T05:13:26;-3.00;99.90
25248;DHT22;13191;47.472;11.214;2023-02-28T05:15:52;-3.10;99.90
25248;DHT22;13191;47.472;11.214;2023-02-28T05:18:17;-3.20;99.90
25248;DHT22;13191;47.472;11.214;2023-02-28T05:20:43;-3.30;99.90
25248;DHT22;13191;47.472;11.214;2023-02-28T05:23:08;-3.30;99.90
25248;DHT22;13191;47.472;11.214;2023-02-28T05:25:36;-3.40;99.90
25248;DHT22;13191;47.472;11.214;2023-02-28T05:28:01;-3.40;99.90
25248;DHT22;13191;47.472;11.214;2023-02-28T05:30:27;-3.40;99.90
25248;DHT22;13191;47.472;11.214;2023-02-28T05:32:52;-3.40;99.90
25248;DHT22;13191;47.472;11.214;2023-02-28T05:35:18;-3.50;99.90
25248;DHT22;13191;47.472;11.214;2023-02-28T05:37:43;-3.60;99.90
25248;DHT22;13191;47.472;11.214;2023-02-28T05:40:09;-3.70;99.90
25248;DHT22;13191;47.472;11.214;2023-02-28T05:42:37;-3.80;99.90
25248;DHT22;13191;47.472;11.214;2023-02-28T05:45:03;-4.00;99.90
25248;DHT22;13191;47.472;11.214;2023-02-28T05:47:29;-4.10;99.90
25248;DHT22;13191;47.472;11.214;2023-02-28T05:49:55;-4.10;99.90
25248;DHT22;13191;47.472;11.214;2023-02-28T05:52:20;-4.20;99.90
25248;DHT22;13191;47.472;11.214;2023-02-28T05:54:46;-4.20;99.90
25248;DHT22;13191;47.472;11.214;2023-02-28T05:57:11;-4.20;99.90
25248;DHT22;13191;47.472;11.214;2023-02-28T05:59:37;-4.30;99.90
25248;DHT22;13191;47.472;11.214;2023-02-28T06:02:11;-4.20;99.90
25248;DHT22;13191;47.472;11.214;2023-02-28T06:04:37;-4.30;99.90
25248;DHT22;13191;47.472;11.214;2023-02-28T06:07:03;-4.40;99.90
25248;DHT22;13191;47.472;11.214;2023-02-28T06:09:28;-4.40;99.90
25248;DHT22;13191;47.472;11.214;2023-02-28T06:11:54;-4.40;99.90
25248;DHT22;13191;47.472;11.214;2023-02-28T06:14:20;-4.50;99.90
25248;DHT22;13191;47.472;11.214;2023-02-28T06:16:46;-4.50;99.90
25248;DHT22;13191;47.472;11.214;2023-02-28T06:19:11;-4.60;99.90
25248;DHT22;13191;47.472;11.214;2023-02-28T06:21:37;-4.60;99.90
25248;DHT22;13191;47.472;11.214;2023-02-28T06:24:03;-4.60;99.90
25248;DHT22;13191;47.472;11.214;2023-02-28T06:26:29;-4.70;99.90
25248;DHT22;13191;47.472;11.214;2023-02-28T06:28:55;-4.90;99.90
25248;DHT22;13191;47.472;11.214;2023-02-28T06:31:20;-4.90;99.90
25248;DHT22;13191;47.472;11.214;2023-02-28T06:33:46;-5.00;99.90
25248;DHT22;13191;47.472;11.214;2023-02-28T06:36:12;-5.00;99.90
25248;DHT22;13191;47.472;11.214;2023-02-28T06:38:38;-5.00;99.90
25248;DHT22;13191;47.472;11.214;2023-02-28T06:41:05;-4.90;99.90
25248;DHT22;13191;47.472;11.214;2023-02-28T06:43:32;-4.90;99.90
25248;DHT22;13191;47.472;11.214;2023-02-28T06:45:58;-4.90;99.90
25248;DHT22;13191;47.472;11.214;2023-02-28T06:48:25;-4.90;99.90
25248;DHT22;13191;47.472;11.214;2023-02-28T06:50:51;-5.00;99.90
25248;DHT22;13191;47.472;11.214;2023-02-28T06:53:16;-5.00;99.90
25248;DHT22;13191;47.472;11.214;2023-02-28T06:55:42;-5.00;99.90
25248;DHT22;13191;47.472;11.214;2023-02-28T06:58:07;-5.10;99.90
25248;DHT22;13191;47.472;11.214;2023-02-28T07:00:42;-5.10;99.90
25248;DHT22;13191;47.472;11.214;2023-02-28T07:03:09;-5.10;99.90
25248;DHT22;13191;47.472;11.214;2023-02-28T07:05:35;-5.10;99.90
25248;DHT22;13191;47.472;11.214;2023-02-28T07:08:01;-5.10;99.90
25248;DHT22;13191;47.472;11.214;2023-02-28T07:10:27;-5.00;99.90
25248;DHT22;13191;47.472;11.214;2023-02-28T07:12:52;-5.00;99.90
25248;DHT22;13191;47.472;11.214;2023-02-28T07:15:17;-5.00;99.90
25248;DHT22;13191;47.472;11.214;2023-02-28T07:17:43;-4.90;99.90
25248;DHT22;13191;47.472;11.214;2023-02-28T07:20:09;-5.00;99.90
25248;DHT22;13191;47.472;11.214;2023-02-28T07:22:34;-5.00;99.90
25248;DHT22;13191;47.472;11.214;2023-02-28T07:25:00;-5.00;99.90
25248;DHT22;13191;47.472;11.214;2023-02-28T07:27:25;-4.90;99.90
25248;DHT22;13191;47.472;11.214;2023-02-28T07:29:51;-4.90;99.90
25248;DHT22;13191;47.472;11.214;2023-02-28T07:32:17;-4.80;99.90
25248;DHT22;13191;47.472;11.214;2023-02-28T07:34:43;-4.70;99.90
25248;DHT22;13191;47.472;11.214;2023-02-28T07:37:09;-4.70;99.90
25248;DHT22;13191;47.472;11.214;2023-02-28T07:39:34;-4.60;99.90
25248;DHT22;13191;47.472;11.214;2023-02-28T07:42:00;-4.60;99.90
25248;DHT22;13191;47.472;11.214;2023-02-28T07:44:29;-4.40;99.90
25248;DHT22;13191;47.472;11.214;2023-02-28T07:46:54;-4.40;99.90
25248;DHT22;13191;47.472;11.214;2023-02-28T07:49:19;-4.30;99.90
25248;DHT22;13191;47.472;11.214;2023-02-28T07:51:45;-4.20;99.90
25248;DHT22;13191;47.472;11.214;2023-02-28T07:54:10;-4.10;99.90
25248;DHT22;13191;47.472;11.214;2023-02-28T07:56:36;-4.10;99.90
25248;DHT22;13191;47.472;11.214;2023-02-28T07:59:02;-4.00;99.90
25248;DHT22;13191;47.472;11.214;2023-02-28T08:01:27;-3.90;99.90
25248;DHT22;13191;47.472;11.214;2023-02-28T08:03:53;-3.80;99.90
25248;DHT22;13191;47.472;11.214;2023-02-28T08:06:21;-3.80;99.90
25248;DHT22;13191;47.472;11.214;2023-02-28T08:08:46;-3.70;99.90
25248;DHT22;13191;47.472;11.214;2023-02-28T08:11:12;-3.50;99.90
25248;DHT22;13191;47.472;11.214;2023-02-28T08:13:37;-3.40;99.90
25248;DHT22;13191;47.472;11.214;2023-02-28T08:16:03;-3.30;99.90
25248;DHT22;13191;47.472;11.214;2023-02-28T08:18:29;-3.10;99.90
25248;DHT22;13191;47.472;11.214;2023-02-28T08:20:54;-3.00;99.90
25248;DHT22;13191;47.472;11.214;2023-02-28T08:23:20;-2.90;99.90
25248;DHT22;13191;47.472;11.214;2023-02-28T08:25:52;-2.80;99.90
25248;DHT22;13191;47.472;11.214;2023-02-28T08:28:17;-2.60;99.90
25248;DHT22;13191;47.472;11.214;2023-02-28T08:30:43;-2.60;99.90
25248;DHT22;13191;47.472;11.214;2023-02-28T08:33:08;-2.50;99.90
25248;DHT22;13191;47.472;11.214;2023-02-28T08:35:35;-2.40;99.90
25248;DHT22;13191;47.472;11.214;2023-02-28T08:38:00;-2.30;99.90
25248;DHT22;13191;47.472;11.214;2023-02-28T08:40:26;-2.10;99.90
25248;DHT22;13191;47.472;11.214;2023-02-28T08:42:51;-2.10;99.90
25248;DHT22;13191;47.472;11.214;2023-02-28T08:45:17;-1.90;99.90
25248;DHT22;13191;47.472;11.214;2023-02-28T08:47:42;-1.90;99.90
25248;DHT22;13191;47.472;11.214;2023-02-28T08:50:08;-1.80;99.90
25248;DHT22;13191;47.472;11.214;2023-02-28T08:52:33;-1.70;99.90
25248;DHT22;13191;47.472;11.214;2023-02-28T08:54:59;-1.60;99.90
25248;DHT22;13191;47.472;11.214;2023-02-28T08:57:25;-1.60;99.90
25248;DHT22;13191;47.472;11.214;2023-02-28T08:59:51;-1.50;99.90
25248;DHT22;13191;47.472;11.214;2023-02-28T09:02:17;-1.50;99.90
25248;DHT22;13191;47.472;11.214;2023-02-28T09:04:43;-1.40;99.90
25248;DHT22;13191;47.472;11.214;2023-02-28T09:07:10;-1.30;99.90
25248;DHT22;13191;47.472;11.214;2023-02-28T09:09:36;-1.30;99.90
25248;DHT22;13191;47.472;11.214;2023-02-28T09:12:01;-1.20;99.90
25248;DHT22;13191;47.472;11.214;2023-02-28T09:14:27;-1.10;99.90
25248;DHT22;13191;47.472;11.214;2023-02-28T09:16:53;-1.00;99.90
25248;DHT22;13191;47.472;11.214;2023-02-28T09:19:18;-0.90;99.90
25248;DHT22;13191;47.472;11.214;2023-02-28T09:21:44;-0.80;99.90
25248;DHT22;13191;47.472;11.214;2023-02-28T09:24:09;-0.80;99.90
25248;DHT22;13191;47.472;11.214;2023-02-28T09:26:36;-0.70;99.90
25248;DHT22;13191;47.472;11.214;2023-02-28T09:29:02;-0.60;99.90
25248;DHT22;13191;47.472;11.214;2023-02-28T09:31:29;-0.70;99.90
25248;DHT22;13191;47.472;11.214;2023-02-28T09:33:55;-0.60;99.90
25248;DHT22;13191;47.472;11.214;2023-02-28T09:36:22;-0.50;99.90
25248;DHT22;13191;47.472;11.214;2023-02-28T09:38:48;-0.40;99.90
25248;DHT22;13191;47.472;11.214;2023-02-28T09:41:18;-0.30;99.90
25248;DHT22;13191;47.472;11.214;2023-02-28T09:43:46;-0.20;99.90
25248;DHT22;13191;47.472;11.214;2023-02-28T09:48:57;0.00;99.90
25248;DHT22;13191;47.472;11.214;2023-02-28T09:51:48;0.10;99.90
25248;DHT22;13191;47.472;11.214;2023-02-28T09:54:17;0.20;99.90
25248;DHT22;13191;47.472;11.214;2023-02-28T09:56:45;0.30;99.90
25248;DHT22;13191;47.472;11.214;2023-02-28T10:04:16;0.40;99.90
25248;DHT22;13191;47.472;11.214;2023-02-28T10:06:54;0.50;99.90
25248;DHT22;13191;47.472;11.214;2023-02-28T10:09:22;0.70;99.90
25248;DHT22;13191;47.472;11.214;2023-02-28T10:11:52;0.80;99.90
25248;DHT22;13191;47.472;11.214;2023-02-28T10:14:19;0.90;99.90
25248;DHT22;13191;47.472;11.214;2023-02-28T10:16:53;0.90;99.90
25248;DHT22;13191;47.472;11.214;2023-02-28T10:26:46;1.40;99.90
25248;DHT22;13191;47.472;11.214;2023-02-28T10:29:12;1.50;99.90
25248;DHT22;13191;47.472;11.214;2023-02-28T10:31:39;1.50;99.90
25248;DHT22;13191;47.472;11.214;2023-02-28T10:34:04;1.60;99.90
25248;DHT22;13191;47.472;11.214;2023-02-28T10:36:31;1.60;99.90
25248;DHT22;13191;47.472;11.214;2023-02-28T10:38:57;1.70;99.90
25248;DHT22;13191;47.472;11.214;2023-02-28T10:41:29;1.70;99.90
25248;DHT22;13191;47.472;11.214;2023-02-28T10:44:12;1.80;99.90
25248;DHT22;13191;47.472;11.214;2023-02-28T10:46:37;1.90;99.90
25248;DHT22;13191;47.472;11.214;2023-02-28T10:49:05;2.00;99.90
25248;DHT22;13191;47.472;11.214;2023-02-28T10:51:35;2.10;99.90
25248;DHT22;13191;47.472;11.214;2023-02-28T10:54:02;2.10;99.90
25248;DHT22;13191;47.472;11.214;2023-02-28T10:56:29;2.10;99.90
25248;DHT22;13191;47.472;11.214;2023-02-28T11:03:48;2.40;99.90
25248;DHT22;13191;47.472;11.214;2023-02-28T11:06:23;2.50;99.90
25248;DHT22;13191;47.472;11.214;2023-02-28T11:08:55;2.60;99.90
25248;DHT22;13191;47.472;11.214;2023-02-28T11:11:21;2.60;99.90
25248;DHT22;13191;47.472;11.214;2023-02-28T11:13:50;2.70;99.90
25248;DHT22;13191;47.472;11.214;2023-02-28T11:16:16;2.80;99.90
25248;DHT22;13191;47.472;11.214;2023-02-28T11:21:07;2.90;99.90
25248;DHT22;13191;47.472;11.214;2023-02-28T11:23:35;3.00;99.90
25248;DHT22;13191;47.472;11.214;2023-02-28T11:26:02;3.20;99.90
25248;DHT22;13191;47.472;11.214;2023-02-28T11:36:15;3.50;99.90
25248;DHT22;13191;47.472;11.214;2023-02-28T11:38:41;3.50;99.90
25248;DHT22;13191;47.472;11.214;2023-02-28T11:46:47;3.60;99.90
25248;DHT22;13191;47.472;11.214;2023-02-28T11:51:53;3.90;99.90
25248;DHT22;13191;47.472;11.214;2023-02-28T11:54:23;4.10;99.90
25248;DHT22;13191;47.472;11.214;2023-02-28T12:02:22;4.10;99.90
25248;DHT22;13191;47.472;11.214;2023-02-28T12:07:25;4.40;99.90
25248;DHT22;13191;47.472;11.214;2023-02-28T12:15:22;4.60;99.90
25248;DHT22;13191;47.472;11.214;2023-02-28T12:28:13;4.80;99.90
25248;DHT22;13191;47.472;11.214;2023-02-28T12:30:50;4.80;99.90
25248;DHT22;13191;47.472;11.214;2023-02-28T12:33:17;4.80;99.90
25248;DHT22;13191;47.472;11.214;2023-02-28T12:40:46;4.90;99.90
25248;DHT22;13191;47.472;11.214;2023-02-28T12:43:14;4.90;99.90
25248;DHT22;13191;47.472;11.214;2023-02-28T12:45:51;4.90;99.90
25248;DHT22;13191;47.472;11.214;2023-02-28T12:48:30;5.00;99.90
25248;DHT22;13191;47.472;11.214;2023-02-28T12:50:57;5.10;99.90
25248;DHT22;13191;47.472;11.214;2023-02-28T12:53:28;5.10;99.90
25248;DHT22;13191;47.472;11.214;2023-02-28T13:03:56;4.40;99.90
25248;DHT22;13191;47.472;11.214;2023-02-28T13:06:32;4.20;99.90
25248;DHT22;13191;47.472;11.214;2023-02-28T13:09:01;3.80;99.90
25248;DHT22;13191;47.472;11.214;2023-02-28T13:11:31;3.60;99.90
25248;DHT22;13191;47.472;11.214;2023-02-28T13:14:01;3.60;99.90
25248;DHT22;13191;47.472;11.214;2023-02-28T13:16:27;3.60;99.90
25248;DHT22;13191;47.472;11.214;2023-02-28T13:18:53;3.60;99.90
25248;DHT22;13191;47.472;11.214;2023-02-28T13:21:33;3.60;99.90
25248;DHT22;13191;47.472;11.214;2023-02-28T13:24:08;3.50;99.90
25248;DHT22;13191;47.472;11.214;2023-02-28T13:34:25;3.30;99.90
25248;DHT22;13191;47.472;11.214;2023-02-28T13:36:51;3.20;99.90
25248;DHT22;13191;47.472;11.214;2023-02-28T13:47:42;3.80;99.90
25248;DHT22;13191;47.472;11.214;2023-02-28T13:58:24;3.90;99.90
25248;DHT22;13191;47.472;11.214;2023-02-28T14:08:37;4.60;99.90
25248;DHT22;13191;47.472;11.214;2023-02-28T14:11:04;4.60;99.90
25248;DHT22;13191;47.472;11.214;2023-02-28T14:13:45;4.70;99.90
25248;DHT22;13191;47.472;11.214;2023-02-28T14:16:54;4.50;99.90
25248;DHT22;13191;47.472;11.214;2023-02-28T14:19:01;4.40;99.90
25248;DHT22;13191;47.472;11.214;2023-02-28T14:21:34;4.50;99.90
25248;DHT22;13191;47.472;11.214;2023-02-28T14:26:32;4.00;99.90
25248;DHT22;13191;47.472;11.214;2023-02-28T14:29:16;3.60;99.90
25248;DHT22;13191;47.472;11.214;2023-02-28T14:36:39;2.80;99.90
25248;DHT22;13191;47.472;11.214;2023-02-28T14:39:12;2.60;99.90
25248;DHT22;13191;47.472;11.214;2023-02-28T14:41:39;2.30;99.90
25248;DHT22;13191;47.472;11.214;2023-02-28T14:44:19;2.00;99.90
25248;DHT22;13191;47.472;11.214;2023-02-28T14:46:52;1.90;99.90
25248;DHT22;13191;47.472;11.214;2023-02-28T14:49:19;1.50;99.90
25248;DHT22;13191;47.472;11.214;2023-02-28T14:51:45;1.30;99.90
25248;DHT22;13191;47.472;11.214;2023-02-28T14:54:16;1.00;99.90
25248;DHT22;13191;47.472;11.214;2023-02-28T14:56:43;0.80;99.90
25248;DHT22;13191;47.472;11.214;2023-02-28T14:59:24;0.70;99.90
25248;DHT22;13191;47.472;11.214;2023-02-28T15:01:50;0.50;99.90
25248;DHT22;13191;47.472;11.214;2023-02-28T15:04:21;0.30;99.90
25248;DHT22;13191;47.472;11.214;2023-02-28T15:07:06;0.10;99.90
25248;DHT22;13191;47.472;11.214;2023-02-28T15:09:32;0.10;99.90
25248;DHT22;13191;47.472;11.214;2023-02-28T15:11:58;0.00;99.90
25248;DHT22;13191;47.472;11.214;2023-02-28T15:16:51;-0.30;99.90
25248;DHT22;13191;47.472;11.214;2023-02-28T15:19:51;-0.30;99.90
25248;DHT22;13191;47.472;11.214;2023-02-28T15:22:14;-0.40;99.90
25248;DHT22;13191;47.472;11.214;2023-02-28T15:24:46;-0.60;99.90
25248;DHT22;13191;47.472;11.214;2023-02-28T15:29:49;-0.80;99.90
25248;DHT22;13191;47.472;11.214;2023-02-28T15:32:21;-0.90;99.90
25248;DHT22;13191;47.472;11.214;2023-02-28T15:34:48;-1.00;99.90
25248;DHT22;13191;47.472;11.214;2023-02-28T15:39:52;-1.10;99.90
25248;DHT22;13191;47.472;11.214;2023-02-28T15:42:19;-1.10;99.90
25248;DHT22;13191;47.472;11.214;2023-02-28T15:44:45;-1.00;99.90
25248;DHT22;13191;47.472;11.214;2023-02-28T15:47:24;-1.00;99.90
25248;DHT22;13191;47.472;11.214;2023-02-28T15:57:48;-1.30;99.90
25248;DHT22;13191;47.472;11.214;2023-02-28T16:00:19;-1.40;99.90
25248;DHT22;13191;47.472;11.214;2023-02-28T16:02:48;-1.50;99.90
25248;DHT22;13191;47.472;11.214;2023-02-28T16:07:42;-1.60;99.90
25248;DHT22;13191;47.472;11.214;2023-02-28T16:10:10;-1.70;99.90
25248;DHT22;13191;47.472;11.214;2023-02-28T16:12:36;-1.70;99.90
25248;DHT22;13191;47.472;11.214;2023-02-28T16:15:05;-1.80;99.90
25248;DHT22;13191;47.472;11.214;2023-02-28T16:17:33;-1.80;99.90
25248;DHT22;13191;47.472;11.214;2023-02-28T16:19:59;-1.80;99.90
25248;DHT22;13191;47.472;11.214;2023-02-28T16:22:25;-1.80;99.90
25248;DHT22;13191;47.472;11.214;2023-02-28T16:24:52;-1.80;99.90
25248;DHT22;13191;47.472;11.214;2023-02-28T16:27:18;-1.90;99.90
25248;DHT22;13191;47.472;11.214;2023-02-28T16:29:45;-1.90;99.90
25248;DHT22;13191;47.472;11.214;2023-02-28T16:32:12;-1.90;99.90
25248;DHT22;13191;47.472;11.214;2023-02-28T16:34:37;-1.90;99.90
25248;DHT22;13191;47.472;11.214;2023-02-28T16:37:04;-1.90;99.90
25248;DHT22;13191;47.472;11.214;2023-02-28T16:39:30;-1.80;99.90
25248;DHT22;13191;47.472;11.214;2023-02-28T16:41:55;-1.80;99.90
25248;DHT22;13191;47.472;11.214;2023-02-28T16:44:27;-1.80;99.90
25248;DHT22;13191;47.472;11.214;2023-02-28T16:46:53;-1.70;99.90
25248;DHT22;13191;47.472;11.214;2023-02-28T16:49:20;-1.70;99.90
25248;DHT22;13191;47.472;11.214;2023-02-28T16:51:49;-1.70;99.90
25248;DHT22;13191;47.472;11.214;2023-02-28T16:54:15;-1.80;99.90
25248;DHT22;13191;47.472;11.214;2023-02-28T16:56:42;-1.80;99.90
25248;DHT22;13191;47.472;11.214;2023-02-28T16:59:09;-1.70;99.90
25248;DHT22;13191;47.472;11.214;2023-02-28T17:01:35;-1.70;99.90
25248;DHT22;13191;47.472;11.214;2023-02-28T17:04:01;-1.70;99.90
25248;DHT22;13191;47.472;11.214;2023-02-28T17:06:27;-1.70;99.90
25248;DHT22;13191;47.472;11.214;2023-02-28T17:08:54;-1.70;99.90
25248;DHT22;13191;47.472;11.214;2023-02-28T17:11:20;-1.60;99.90
25248;DHT22;13191;47.472;11.214;2023-02-28T17:13:46;-1.60;99.90
25248;DHT22;13191;47.472;11.214;2023-02-28T17:16:15;-1.50;99.90
25248;DHT22;13191;47.472;11.214;2023-02-28T17:18:42;-1.40;99.90
25248;DHT22;13191;47.472;11.214;2023-02-28T17:21:15;-1.50;99.90
25248;DHT22;13191;47.472;11.214;2023-02-28T17:23:41;-1.60;99.90
25248;DHT22;13191;47.472;11.214;2023-02-28T17:26:08;-1.50;99.90
25248;DHT22;13191;47.472;11.214;2023-02-28T17:28:34;-1.50;99.90
25248;DHT22;13191;47.472;11.214;2023-02-28T17:31:01;-1.50;99.90
25248;DHT22;13191;47.472;11.214;2023-02-28T17:33:28;-1.50;99.90
25248;DHT22;13191;47.472;11.214;2023-02-28T17:35:54;-1.60;99.90
25248;DHT22;13191;47.472;11.214;2023-02-28T17:38:19;-1.60;99.90
25248;DHT22;13191;47.472;11.214;2023-02-28T17:40:48;-1.60;99.90
25248;DHT22;13191;47.472;11.214;2023-02-28T17:43:13;-1.60;99.90
25248;DHT22;13191;47.472;11.214;2023-02-28T17:45:40;-1.60;99.90
25248;DHT22;13191;47.472;11.214;2023-02-28T17:48:05;-1.50;99.90
25248;DHT22;13191;47.472;11.214;2023-02-28T17:50:31;-1.40;99.90
25248;DHT22;13191;47.472;11.214;2023-02-28T17:52:57;-1.40;99.90
25248;DHT22;13191;47.472;11.214;2023-02-28T17:55:24;-1.40;99.90
25248;DHT22;13191;47.472;11.214;2023-02-28T17:57:49;-1.30;99.90
25248;DHT22;13191;47.472;11.214;2023-02-28T18:00:15;-1.30;99.90
25248;DHT22;13191;47.472;11.214;2023-02-28T18:02:42;-1.30;99.90
25248;DHT22;13191;47.472;11.214;2023-02-28T18:05:08;-1.20;99.90